createdAt,value
2018-04-18T00:01:44.652Z,41.72
2018-04-18T00:04:54.394Z,24.83
2018-04-18T00:08:04.340Z,24.83
2018-04-18T00:11:15.654Z,19.05
2018-04-18T00:14:25.839Z,23.38
2018-04-18T00:17:35.887Z,29.40
2018-04-18T00:20:46.752Z,21.85
2018-04-18T00:23:57.082Z,20.02
2018-04-18T00:27:07.061Z,18.20
2018-04-18T00:30:16.948Z,21.70
2018-04-18T00:33:27.170Z,21.35
2018-04-18T00:36:37.392Z,17.62
2018-04-18T00:39:47.431Z,17.42
2018-04-18T00:42:58.142Z,19.85
2018-04-18T00:46:08.301Z,22.40
2018-04-18T00:49:18.293Z,17.55
2018-04-18T00:52:28.076Z,22.45
2018-04-18T00:55:37.908Z,23.83
2018-04-18T00:58:49.327Z,22.42
2018-04-18T01:01:59.986Z,25.33
2018-04-18T01:05:10.770Z,22.02
2018-04-18T01:08:20.710Z,33.65
2018-04-18T01:11:30.690Z,21.62
2018-04-18T01:14:41.247Z,15.85
2018-04-18T01:17:51.506Z,18.62
2018-04-18T01:21:01.642Z,20.27
2018-04-18T01:24:11.436Z,17.08
2018-04-18T01:27:22.067Z,22.65
2018-04-18T01:30:31.992Z,27.20
2018-04-18T01:33:42.699Z,15.85
2018-04-18T01:36:52.805Z,22.87
2018-04-18T01:40:03.311Z,20.75
2018-04-18T01:43:13.301Z,17.42
2018-04-18T01:46:23.438Z,23.10
2018-04-18T01:49:33.258Z,17.55
2018-04-18T01:52:43.545Z,18.30
2018-04-18T01:55:53.756Z,15.48
2018-04-18T01:59:03.616Z,29.85
2018-04-18T02:02:13.401Z,21.48
2018-04-18T02:05:23.293Z,22.73
2018-04-18T02:08:33.283Z,26.33
2018-04-18T02:11:43.553Z,17.67
2018-04-18T02:14:53.565Z,28.35
2018-04-18T02:18:03.825Z,22.35
2018-04-18T02:21:13.883Z,26.33
2018-04-18T02:24:24.053Z,17.58
2018-04-18T02:27:34.770Z,15.90
2018-04-18T02:30:44.820Z,19.52
2018-04-18T02:33:55.038Z,21.52
2018-04-18T02:37:06.148Z,19.37
2018-04-18T02:40:16.514Z,19.23
2018-04-18T02:43:27.892Z,22.65
2018-04-18T02:46:38.622Z,23.60
2018-04-18T02:49:48.621Z,25.55
2018-04-18T02:52:59.251Z,16.02
2018-04-18T02:56:09.312Z,34.30
2018-04-18T02:59:19.157Z,30.52
2018-04-18T03:02:29.735Z,22.08
2018-04-18T03:05:39.701Z,19.12
2018-04-18T03:08:49.656Z,19.35
2018-04-18T03:11:59.595Z,14.25
2018-04-18T03:15:09.652Z,20.95
2018-04-18T03:18:20.570Z,19.98
2018-04-18T03:21:31.094Z,20.65
2018-04-18T03:24:41.110Z,24.77
2018-04-18T03:27:51.019Z,24.27
2018-04-18T03:31:01.718Z,31.52
2018-04-18T03:34:13.424Z,20.90
2018-04-18T03:37:23.738Z,22.23
2018-04-18T03:40:34.188Z,21.50
2018-04-18T03:43:44.718Z,20.02
2018-04-18T03:46:55.423Z,17.58
2018-04-18T03:50:06.221Z,22.85
2018-04-18T03:53:17.194Z,18.30
2018-04-18T03:56:27.921Z,16.73
2018-04-18T03:59:38.237Z,26.55
2018-04-18T04:02:48.087Z,21.92
2018-04-18T04:05:58.413Z,20.92
2018-04-18T04:09:08.485Z,21.73
2018-04-18T04:12:18.538Z,25.73
2018-04-18T04:15:28.817Z,20.05
2018-04-18T04:18:49.909Z,18.95
2018-04-18T04:22:11.811Z,18.85
2018-04-18T04:25:22.358Z,19.25
2018-04-18T04:28:33.914Z,17.55
2018-04-18T04:31:43.842Z,22.55
2018-04-18T04:34:53.645Z,18.45
2018-04-18T04:38:03.616Z,19.40
2018-04-18T04:41:13.594Z,18.37
2018-04-18T04:44:23.455Z,17.42
2018-04-18T04:47:33.296Z,19.12
2018-04-18T04:50:43.356Z,17.48
2018-04-18T04:53:54.002Z,17.75
2018-04-18T04:57:04.186Z,20.02
2018-04-18T05:00:14.302Z,25.10
2018-04-18T05:03:24.122Z,29.48
2018-04-18T05:06:34.245Z,29.00
2018-04-18T05:09:45.604Z,19.25
2018-04-18T05:12:55.713Z,21.48
2018-04-18T05:16:05.845Z,15.52
2018-04-18T05:19:15.708Z,19.35
2018-04-18T05:22:25.625Z,19.45
2018-04-18T05:25:35.465Z,25.02
2018-04-18T05:28:45.310Z,24.65
2018-04-18T05:31:55.422Z,16.67
2018-04-18T05:35:05.250Z,17.60
2018-04-18T05:38:15.254Z,26.12
2018-04-18T05:41:25.892Z,21.33
2018-04-18T05:44:36.260Z,19.33
2018-04-18T05:47:46.291Z,25.30
2018-04-18T05:50:56.386Z,24.87
2018-04-18T05:54:06.302Z,18.33
2018-04-18T05:57:17.138Z,23.87
2018-04-18T06:00:27.278Z,22.37
2018-04-18T06:03:37.255Z,23.45
2018-04-18T06:06:47.215Z,18.95
2018-04-18T06:09:57.077Z,18.62
2018-04-18T06:13:07.822Z,23.05
2018-04-18T06:16:17.747Z,18.92
2018-04-18T06:19:29.144Z,22.02
2018-04-18T06:22:39.370Z,28.60
2018-04-18T06:25:49.400Z,19.30
2018-04-18T06:28:59.357Z,24.15
2018-04-18T06:32:09.329Z,18.52
2018-04-18T06:35:19.508Z,21.37
2018-04-18T06:38:29.646Z,18.15
2018-04-18T06:41:40.258Z,20.05
2018-04-18T06:44:50.111Z,19.33
2018-04-18T06:48:00.209Z,20.77
2018-04-18T06:51:10.472Z,16.73
2018-04-18T06:54:21.103Z,23.27
2018-04-18T06:57:31.173Z,17.08
2018-04-18T07:00:41.270Z,30.52
2018-04-18T07:03:50.991Z,29.15
2018-04-18T07:07:00.958Z,22.25
2018-04-18T07:10:10.903Z,18.62
2018-04-18T07:13:21.488Z,24.17
2018-04-18T07:16:31.951Z,20.98
2018-04-18T07:19:41.681Z,23.25
2018-04-18T07:22:51.974Z,29.40
2018-04-18T07:26:02.117Z,25.05
2018-04-18T07:29:12.118Z,21.98
2018-04-18T07:32:22.042Z,19.42
2018-04-18T07:35:32.640Z,21.42
2018-04-18T07:38:43.515Z,35.25
2018-04-18T07:41:53.896Z,25.65
2018-04-18T07:45:04.241Z,23.05
2018-04-18T07:48:14.816Z,23.10
2018-04-18T07:51:24.693Z,21.60
2018-04-18T07:54:35.586Z,39.47
2018-04-18T07:57:45.382Z,16.50
2018-04-18T08:00:55.556Z,31.15
2018-04-18T08:04:06.422Z,18.87
2018-04-18T08:07:16.613Z,19.85
2018-04-18T08:10:27.455Z,19.52
2018-04-18T08:13:37.847Z,17.65
2018-04-18T08:16:47.606Z,22.10
2018-04-18T08:19:57.948Z,20.58
2018-04-18T08:23:07.742Z,25.52
2018-04-18T08:26:17.896Z,19.12
2018-04-18T08:29:27.880Z,16.90
2018-04-18T08:32:37.925Z,24.50
2018-04-18T08:35:47.999Z,25.95
2018-04-18T08:38:58.194Z,16.83
2018-04-18T08:42:08.110Z,21.85
2018-04-18T08:45:18.823Z,17.67
2018-04-18T08:48:28.556Z,25.83
2018-04-18T08:51:39.284Z,18.40
2018-04-18T08:54:49.833Z,19.75
2018-04-18T08:57:59.701Z,14.15
2018-04-18T09:01:09.493Z,16.20
2018-04-18T09:04:20.237Z,14.13
2018-04-18T09:07:31.190Z,12.75
2018-04-18T09:10:41.439Z,19.08
2018-04-18T09:13:51.637Z,18.30
2018-04-18T09:17:02.284Z,13.38
2018-04-18T09:20:12.751Z,14.60
2018-04-18T09:23:22.594Z,16.52
2018-04-18T09:26:32.588Z,15.35
2018-04-18T09:29:43.306Z,12.63
2018-04-18T09:32:53.771Z,13.07
2018-04-18T09:36:05.358Z,15.85
2018-04-18T09:39:16.350Z,13.57
2018-04-18T09:42:26.465Z,16.40
2018-04-18T09:45:36.752Z,18.60
2018-04-18T09:48:46.556Z,12.45
2018-04-18T09:51:56.546Z,17.05
2018-04-18T09:55:07.047Z,18.60
2018-04-18T09:58:17.070Z,21.20
2018-04-18T10:01:32.737Z,18.60
2018-04-18T10:04:44.777Z,17.62
2018-04-18T10:07:54.841Z,24.55
2018-04-18T10:11:05.067Z,15.80
2018-04-18T10:14:14.906Z,17.15
2018-04-18T10:17:26.377Z,16.50
2018-04-18T10:20:36.726Z,15.88
2018-04-18T10:23:46.535Z,20.65
2018-04-18T10:26:56.330Z,15.80
2018-04-18T10:30:06.562Z,13.82
2018-04-18T10:33:16.693Z,18.23
2018-04-18T10:36:26.455Z,14.43
2018-04-18T10:39:36.399Z,17.27
2018-04-18T10:42:47.392Z,11.73
2018-04-18T10:45:57.540Z,10.88
2018-04-18T10:49:08.105Z,16.25
2018-04-18T10:52:17.831Z,12.15
2018-04-18T10:55:27.772Z,17.33
2018-04-18T10:58:37.659Z,11.50
2018-04-18T11:01:48.406Z,10.10
2018-04-18T11:04:58.155Z,14.57
2018-04-18T11:08:08.726Z,7.45
2018-04-18T11:11:19.021Z,14.90
2018-04-18T11:14:29.734Z,11.07
2018-04-18T11:17:39.730Z,10.60
2018-04-18T11:20:49.504Z,10.93
2018-04-18T11:23:59.841Z,23.10
2018-04-18T11:27:10.127Z,10.85
2018-04-18T11:30:20.475Z,13.32
2018-04-18T11:33:30.491Z,17.08
2018-04-18T11:36:40.398Z,13.70
2018-04-18T11:39:51.172Z,13.43
2018-04-18T11:43:01.477Z,10.43
2018-04-18T11:46:12.060Z,11.90
2018-04-18T11:49:21.929Z,12.45
2018-04-18T11:52:31.925Z,17.70
2018-04-18T11:55:42.653Z,13.10
2018-04-18T11:58:53.165Z,18.92
2018-04-18T12:02:03.555Z,11.63
2018-04-18T12:05:13.414Z,15.05
2018-04-18T12:08:23.497Z,17.73
2018-04-18T12:11:33.575Z,16.90
2018-04-18T12:14:43.674Z,14.52
2018-04-18T12:17:54.614Z,12.97
2018-04-18T12:21:05.276Z,12.27
2018-04-18T12:24:15.752Z,13.45
2018-04-18T12:27:26.393Z,14.40
2018-04-18T12:30:36.501Z,13.57
2018-04-18T12:33:46.563Z,16.73
2018-04-18T12:36:56.753Z,10.27
2018-04-18T12:40:06.719Z,13.55
2018-04-18T12:43:17.131Z,14.90
2018-04-18T12:46:26.714Z,12.23
2018-04-18T12:49:36.609Z,14.87
2018-04-18T12:52:46.651Z,11.87
2018-04-18T12:55:56.420Z,17.03
2018-04-18T12:59:06.333Z,16.60
2018-04-18T13:02:16.199Z,11.67
2018-04-18T13:05:27.304Z,16.13
2018-04-18T13:08:37.411Z,23.13
2018-04-18T13:11:47.504Z,19.43
2018-04-18T13:14:57.306Z,15.00
2018-04-18T13:18:08.299Z,12.57
2018-04-18T13:21:18.108Z,14.30
2018-04-18T13:24:27.982Z,16.60
2018-04-18T13:27:37.956Z,16.80
2018-04-18T13:30:47.817Z,8.90
2018-04-18T13:33:57.908Z,14.13
2018-04-18T13:37:07.947Z,18.10
2018-04-18T13:40:17.469Z,16.80
2018-04-18T13:43:27.546Z,18.67
2018-04-18T13:46:37.535Z,21.23
2018-04-18T13:49:47.445Z,16.70
2018-04-18T13:52:58.256Z,19.30
2018-04-18T13:56:08.838Z,17.87
2018-04-18T13:59:19.710Z,17.20
2018-04-18T14:02:29.854Z,15.97
2018-04-18T14:05:40.580Z,21.57
2018-04-18T14:08:51.889Z,14.40
2018-04-18T14:12:02.205Z,17.03
2018-04-18T14:15:13.176Z,12.93
2018-04-18T14:18:23.186Z,15.77
2018-04-18T14:21:34.426Z,15.67
2018-04-18T14:24:45.104Z,14.57
2018-04-18T14:27:55.159Z,16.90
2018-04-18T14:31:05.115Z,20.97
2018-04-18T14:34:15.152Z,22.60
2018-04-18T14:37:25.607Z,14.30
2018-04-18T14:40:35.575Z,13.20
2018-04-18T14:43:45.498Z,13.43
2018-04-18T14:46:57.705Z,12.40
2018-04-18T14:50:08.508Z,12.60
2018-04-18T14:53:18.371Z,15.80
2018-04-18T14:56:28.055Z,12.80
2018-04-18T14:59:38.405Z,16.17
2018-04-18T15:02:48.578Z,13.40
2018-04-18T15:05:58.590Z,13.60
2018-04-18T15:09:09.080Z,15.80
2018-04-18T15:12:19.230Z,9.17
2018-04-18T15:15:29.695Z,12.57
2018-04-18T15:18:39.989Z,20.67
2018-04-18T15:21:49.851Z,11.83
2018-04-18T15:24:59.685Z,13.43
2018-04-18T15:28:09.523Z,11.60
2018-04-18T15:31:19.188Z,10.80
2018-04-18T15:34:29.459Z,11.50
2018-04-18T15:37:39.320Z,9.33
2018-04-18T15:40:49.087Z,11.67
2018-04-18T15:43:59.345Z,14.23
2018-04-18T15:47:11.952Z,11.17
2018-04-18T15:50:22.966Z,11.00
2018-04-18T15:53:33.154Z,10.40
2018-04-18T15:56:43.129Z,11.70
2018-04-18T15:59:53.058Z,9.00
2018-04-18T16:03:03.105Z,8.03
2018-04-18T16:06:13.230Z,14.80
2018-04-18T16:09:23.664Z,9.87
2018-04-18T16:12:33.569Z,8.57
2018-04-18T16:15:47.805Z,8.00
2018-04-18T16:18:58.931Z,9.13
2018-04-18T16:22:08.850Z,14.23
2018-04-18T16:25:18.542Z,11.37
2018-04-18T16:28:31.295Z,8.77
2018-04-18T16:31:41.995Z,10.50
2018-04-18T16:34:52.686Z,12.35
2018-04-18T16:38:02.587Z,20.70
2018-04-18T16:41:13.110Z,15.55
2018-04-18T16:44:24.677Z,17.62
2018-04-18T16:47:35.138Z,23.23
2018-04-18T16:50:45.828Z,12.05
2018-04-18T16:53:56.105Z,8.30
2018-04-18T16:57:06.672Z,13.65
2018-04-18T17:00:18.362Z,11.32
2018-04-18T17:03:29.214Z,13.82
2018-04-18T17:06:40.052Z,10.80
2018-04-18T17:09:50.048Z,9.55
2018-04-18T17:13:00.043Z,14.38
2018-04-18T17:16:09.955Z,17.58
2018-04-18T17:19:19.714Z,9.68
2018-04-18T17:22:29.918Z,15.02
2018-04-18T17:25:39.946Z,14.27
2018-04-18T17:28:50.719Z,10.98
2018-04-18T17:32:00.669Z,11.12
2018-04-18T17:35:11.355Z,10.05
2018-04-18T17:38:21.336Z,8.38
2018-04-18T17:41:31.288Z,11.35
2018-04-18T17:44:41.533Z,8.95
2018-04-18T17:47:52.162Z,10.95
2018-04-18T17:51:02.409Z,11.70
2018-04-18T17:54:12.197Z,10.13
2018-04-18T17:57:22.065Z,9.85
2018-04-18T18:00:32.265Z,14.60
2018-04-18T18:03:42.956Z,16.35
2018-04-18T18:06:52.992Z,10.68
2018-04-18T18:10:03.096Z,11.23
2018-04-18T18:13:14.959Z,7.78
2018-04-18T18:16:25.736Z,14.65
2018-04-18T18:19:35.762Z,14.15
2018-04-18T18:22:46.092Z,8.80
2018-04-18T18:25:56.534Z,9.25
2018-04-18T18:29:06.940Z,8.68
2018-04-18T18:32:17.476Z,10.75
2018-04-18T18:35:29.146Z,10.02
2018-04-18T18:38:39.563Z,12.80
2018-04-18T18:41:50.226Z,8.77
2018-04-18T18:45:00.349Z,12.10
2018-04-18T18:48:11.142Z,9.43
2018-04-18T18:51:21.543Z,10.95
2018-04-18T18:54:31.996Z,11.52
2018-04-18T18:57:42.241Z,10.38
2018-04-18T19:00:52.749Z,12.20
2018-04-18T19:04:03.287Z,9.70
2018-04-18T19:07:13.409Z,9.65
2018-04-18T19:10:23.866Z,8.48
2018-04-18T19:13:33.842Z,11.93
2018-04-18T19:16:43.951Z,13.75
2018-04-18T19:19:54.197Z,11.25
2018-04-18T19:23:04.545Z,12.95
2018-04-18T19:26:14.574Z,11.82
2018-04-18T19:29:24.708Z,11.63
2018-04-18T19:32:34.511Z,10.45
2018-04-18T19:35:44.871Z,14.60
2018-04-18T19:38:54.981Z,18.98
2018-04-18T19:42:04.654Z,24.52
2018-04-18T19:45:15.259Z,12.35
2018-04-18T19:48:25.059Z,17.80
2018-04-18T19:51:35.390Z,14.38
2018-04-18T19:54:45.464Z,11.15
2018-04-18T19:57:55.661Z,11.93
2018-04-18T20:01:06.206Z,19.87
2018-04-18T20:04:16.349Z,12.05
2018-04-18T20:07:27.057Z,16.02
2018-04-18T20:10:37.359Z,12.95
2018-04-18T20:13:47.779Z,13.35
2018-04-18T20:16:58.717Z,16.17
2018-04-18T20:20:09.612Z,18.40
2018-04-18T20:23:19.646Z,12.85
2018-04-18T20:26:30.211Z,12.65
2018-04-18T20:29:41.408Z,16.02
2018-04-18T20:32:51.257Z,14.85
2018-04-18T20:36:02.340Z,10.52
2018-04-18T20:39:12.468Z,10.30
2018-04-18T20:42:22.757Z,14.48
2018-04-18T20:45:32.607Z,13.77
2018-04-18T20:48:43.221Z,12.23
2018-04-18T20:51:53.871Z,12.18
2018-04-18T20:55:04.057Z,13.07
2018-04-18T20:58:14.110Z,10.52
2018-04-18T21:01:25.916Z,10.80
2018-04-18T21:04:35.840Z,12.70
2018-04-18T21:07:46.158Z,11.60
2018-04-18T21:10:56.766Z,15.23
2018-04-18T21:14:07.833Z,12.30
2018-04-18T21:17:17.551Z,8.13
2018-04-18T21:20:27.516Z,14.40
2018-04-18T21:23:38.181Z,10.73
2018-04-18T21:26:48.456Z,11.15
2018-04-18T21:29:59.872Z,11.63
2018-04-18T21:33:10.630Z,10.30
2018-04-18T21:36:20.930Z,11.00
2018-04-18T21:39:31.909Z,8.93
2018-04-18T21:42:41.798Z,14.23
2018-04-18T21:45:52.062Z,18.40
2018-04-18T21:49:02.920Z,12.20
2018-04-18T21:52:13.266Z,10.43
2018-04-18T21:55:24.006Z,10.80
2018-04-18T21:58:34.013Z,9.45
2018-04-18T22:01:44.246Z,12.88
2018-04-18T22:04:55.782Z,10.80
2018-04-18T22:08:05.957Z,11.15
2018-04-18T22:11:16.300Z,11.02
2018-04-18T22:14:27.639Z,9.88
2018-04-18T22:17:37.952Z,9.85
2018-04-18T22:20:47.721Z,10.70
2018-04-18T22:23:58.700Z,13.13
2018-04-18T22:27:09.738Z,9.68
2018-04-18T22:30:20.263Z,10.43
2018-04-18T22:33:30.752Z,7.65
2018-04-18T22:36:40.898Z,9.88
2018-04-18T22:39:51.451Z,9.48
2018-04-18T22:43:02.134Z,13.35
2018-04-18T22:46:12.140Z,10.48
2018-04-18T22:49:22.659Z,8.32
2018-04-18T22:52:32.748Z,11.88
2018-04-18T22:55:42.792Z,11.00
2018-04-18T22:58:53.959Z,8.98
2018-04-18T23:02:04.255Z,8.55
2018-04-18T23:05:15.609Z,8.90
2018-04-18T23:08:26.540Z,11.02
2018-04-18T23:11:37.551Z,12.18
2018-04-18T23:14:48.424Z,7.78
2018-04-18T23:17:58.250Z,12.27
2018-04-18T23:21:08.407Z,10.98
2018-04-18T23:24:18.781Z,10.10
2018-04-18T23:27:29.209Z,17.92
2018-04-18T23:30:39.096Z,14.32
2018-04-18T23:33:49.261Z,9.88
2018-04-18T23:36:59.847Z,7.47
2018-04-18T23:40:09.910Z,10.73
2018-04-18T23:43:20.376Z,11.38
2018-04-18T23:46:30.641Z,9.73
2018-04-18T23:49:41.871Z,14.38
2018-04-18T23:52:52.306Z,8.68
2018-04-18T23:56:02.326Z,18.67
2018-04-18T23:59:12.987Z,7.75
